sensor_id;sensor_type;location;lat;lon;timestamp;temperature;humidity
25949;DHT22;13961;51.178;4.448;2023-02-22T00:00:59;7.40;99.90
25949;DHT22;13961;51.178;4.448;2023-02-22T00:03:31;7.20;99.90
25949;DHT22;13961;51.178;4.448;2023-02-22T00:05:59;6.90;99.90
25949;DHT22;13961;51.178;4.448;2023-02-22T00:08:28;6.90;99.90
25949;DHT22;13961;51.178;4.448;2023-02-22T00:11:02;7.20;99.90
25949;DHT22;13961;51.178;4.448;2023-02-22T00:13:28;7.40;99.90
25949;DHT22;13961;51.178;4.448;2023-02-22T00:15:55;7.00;99.90
25949;DHT22;13961;51.178;4.448;2023-02-22T00:18:21;6.90;99.90
25949;DHT22;13961;51.178;4.448;2023-02-22T00:20:47;6.60;99.90
25949;DHT22;13961;51.178;4.448;2023-02-22T00:23:20;6.40;99.90
25949;DHT22;13961;51.178;4.448;2023-02-22T00:25:48;6.10;99.90
25949;DHT22;13961;51.178;4.448;2023-02-22T00:28:14;6.10;99.90
25949;DHT22;13961;51.178;4.448;2023-02-22T00:30:41;6.10;99.90
25949;DHT22;13961;51.178;4.448;2023-02-22T00:33:11;6.20;99.90
25949;DHT22;13961;51.178;4.448;2023-02-22T00:35:38;6.20;99.90
25949;DHT22;13961;51.178;4.448;2023-02-22T00:38:04;6.30;99.90
25949;DHT22;13961;51.178;4.448;2023-02-22T00:40:32;6.30;99.90
25949;DHT22;13961;51.178;4.448;2023-02-22T00:42:59;6.60;99.90
25949;DHT22;13961;51.178;4.448;2023-02-22T00:45:28;6.60;99.90
25949;DHT22;13961;51.178;4.448;2023-02-22T00:47:54;6.50;99.90
25949;DHT22;13961;51.178;4.448;2023-02-22T00:50:21;6.50;99.90
25949;DHT22;13961;51.178;4.448;2023-02-22T00:52:47;6.70;99.90
25949;DHT22;13961;51.178;4.448;2023-02-22T00:55:28;6.80;99.90
25949;DHT22;13961;51.178;4.448;2023-02-22T00:57:54;7.10;99.90
25949;DHT22;13961;51.178;4.448;2023-02-22T01:00:26;7.30;99.90
25949;DHT22;13961;51.178;4.448;2023-02-22T01:02:52;6.80;99.90
25949;DHT22;13961;51.178;4.448;2023-02-22T01:05:22;6.90;99.90
25949;DHT22;13961;51.178;4.448;2023-02-22T01:07:48;6.80;99.90
25949;DHT22;13961;51.178;4.448;2023-02-22T01:10:17;6.80;99.90
25949;DHT22;13961;51.178;4.448;2023-02-22T01:12:44;6.60;99.90
25949;DHT22;13961;51.178;4.448;2023-02-22T01:15:10;7.00;99.90
25949;DHT22;13961;51.178;4.448;2023-02-22T01:17:38;6.80;99.90
25949;DHT22;13961;51.178;4.448;2023-02-22T01:20:06;6.80;99.90
25949;DHT22;13961;51.178;4.448;2023-02-22T01:22:35;7.10;99.90
25949;DHT22;13961;51.178;4.448;2023-02-22T01:25:02;7.40;99.90
25949;DHT22;13961;51.178;4.448;2023-02-22T01:27:28;7.70;99.90
25949;DHT22;13961;51.178;4.448;2023-02-22T01:29:53;7.60;99.90
25949;DHT22;13961;51.178;4.448;2023-02-22T01:32:19;7.00;99.90
25949;DHT22;13961;51.178;4.448;2023-02-22T01:34:45;6.80;99.90
25949;DHT22;13961;51.178;4.448;2023-02-22T01:37:10;6.40;99.90
25949;DHT22;13961;51.178;4.448;2023-02-22T01:39:36;6.30;99.90
25949;DHT22;13961;51.178;4.448;2023-02-22T01:42:02;6.30;99.90
25949;DHT22;13961;51.178;4.448;2023-02-22T01:44:36;6.20;99.90
25949;DHT22;13961;51.178;4.448;2023-02-22T01:47:04;6.30;99.90
25949;DHT22;13961;51.178;4.448;2023-02-22T01:49:37;6.40;99.90
25949;DHT22;13961;51.178;4.448;2023-02-22T01:52:07;6.10;99.90
25949;DHT22;13961;51.178;4.448;2023-02-22T01:54:38;6.00;99.90
25949;DHT22;13961;51.178;4.448;2023-02-22T01:57:07;6.20;99.90
25949;DHT22;13961;51.178;4.448;2023-02-22T01:59:35;6.20;99.90
25949;DHT22;13961;51.178;4.448;2023-02-22T02:02:02;6.50;99.90
25949;DHT22;13961;51.178;4.448;2023-02-22T02:04:30;6.70;99.90
25949;DHT22;13961;51.178;4.448;2023-02-22T02:07:00;6.50;99.90
25949;DHT22;13961;51.178;4.448;2023-02-22T02:11:59;6.80;99.90
25949;DHT22;13961;51.178;4.448;2023-02-22T02:14:26;6.80;99.90
25949;DHT22;13961;51.178;4.448;2023-02-22T02:16:52;6.90;99.90
25949;DHT22;13961;51.178;4.448;2023-02-22T02:36:55;6.00;99.90
25949;DHT22;13961;51.178;4.448;2023-02-22T02:39:38;5.80;99.90
25949;DHT22;13961;51.178;4.448;2023-02-22T02:42:09;5.70;99.90
25949;DHT22;13961;51.178;4.448;2023-02-22T02:44:41;5.90;99.90
25949;DHT22;13961;51.178;4.448;2023-02-22T02:47:16;5.90;99.90
25949;DHT22;13961;51.178;4.448;2023-02-22T02:50:05;5.60;99.90
25949;DHT22;13961;51.178;4.448;2023-02-22T02:52:33;5.80;99.90
25949;DHT22;13961;51.178;4.448;2023-02-22T02:55:01;6.00;99.90
25949;DHT22;13961;51.178;4.448;2023-02-22T02:57:28;6.20;99.90
25949;DHT22;13961;51.178;4.448;2023-02-22T02:59:53;6.20;99.90
25949;DHT22;13961;51.178;4.448;2023-02-22T03:05:33;6.10;99.90
25949;DHT22;13961;51.178;4.448;2023-02-22T03:08:16;6.10;99.90
25949;DHT22;13961;51.178;4.448;2023-02-22T03:13:35;6.20;99.90
25949;DHT22;13961;51.178;4.448;2023-02-22T03:16:11;6.20;99.90
25949;DHT22;13961;51.178;4.448;2023-02-22T03:19:04;6.10;99.90
25949;DHT22;13961;51.178;4.448;2023-02-22T03:21:54;6.10;99.90
25949;DHT22;13961;51.178;4.448;2023-02-22T03:27:39;5.70;99.90
25949;DHT22;13961;51.178;4.448;2023-02-22T03:30:15;5.70;99.90
25949;DHT22;13961;51.178;4.448;2023-02-22T03:32:46;6.00;99.90
25949;DHT22;13961;51.178;4.448;2023-02-22T03:35:21;6.30;99.90
25949;DHT22;13961;51.178;4.448;2023-02-22T03:37:54;5.90;99.90
25949;DHT22;13961;51.178;4.448;2023-02-22T03:40:32;5.90;99.90
25949;DHT22;13961;51.178;4.448;2023-02-22T03:43:30;6.20;99.90
25949;DHT22;13961;51.178;4.448;2023-02-22T03:45:53;6.40;99.90
25949;DHT22;13961;51.178;4.448;2023-02-22T03:50:57;5.80;99.90
25949;DHT22;13961;51.178;4.448;2023-02-22T03:53:23;5.80;99.90
25949;DHT22;13961;51.178;4.448;2023-02-22T03:55:51;5.90;99.90
25949;DHT22;13961;51.178;4.448;2023-02-22T03:58:20;5.90;99.90
25949;DHT22;13961;51.178;4.448;2023-02-22T04:00:47;5.70;99.90
25949;DHT22;13961;51.178;4.448;2023-02-22T04:03:18;5.80;99.90
25949;DHT22;13961;51.178;4.448;2023-02-22T04:05:44;5.90;99.90
25949;DHT22;13961;51.178;4.448;2023-02-22T04:08:10;5.80;99.90
25949;DHT22;13961;51.178;4.448;2023-02-22T04:10:35;6.20;99.90
25949;DHT22;13961;51.178;4.448;2023-02-22T04:13:02;6.40;99.90
25949;DHT22;13961;51.178;4.448;2023-02-22T04:15:29;6.40;99.90
25949;DHT22;13961;51.178;4.448;2023-02-22T04:17:54;6.40;99.90
25949;DHT22;13961;51.178;4.448;2023-02-22T04:20:20;6.70;99.90
25949;DHT22;13961;51.178;4.448;2023-02-22T04:22:51;7.10;99.90
25949;DHT22;13961;51.178;4.448;2023-02-22T04:25:18;6.80;99.90
25949;DHT22;13961;51.178;4.448;2023-02-22T04:27:44;6.70;99.90
25949;DHT22;13961;51.178;4.448;2023-02-22T04:30:11;6.60;99.90
25949;DHT22;13961;51.178;4.448;2023-02-22T04:32:37;6.60;99.90
25949;DHT22;13961;51.178;4.448;2023-02-22T04:35:04;6.80;99.90
25949;DHT22;13961;51.178;4.448;2023-02-22T04:37:30;6.20;99.90
25949;DHT22;13961;51.178;4.448;2023-02-22T04:40:00;6.30;99.90
25949;DHT22;13961;51.178;4.448;2023-02-22T04:42:26;6.10;99.90
25949;DHT22;13961;51.178;4.448;2023-02-22T04:44:52;6.10;99.90
25949;DHT22;13961;51.178;4.448;2023-02-22T04:47:18;5.90;99.90
25949;DHT22;13961;51.178;4.448;2023-02-22T04:49:44;5.70;99.90
25949;DHT22;13961;51.178;4.448;2023-02-22T04:52:10;5.80;99.90
25949;DHT22;13961;51.178;4.448;2023-02-22T04:54:36;6.10;99.90
25949;DHT22;13961;51.178;4.448;2023-02-22T04:57:01;5.90;99.90
25949;DHT22;13961;51.178;4.448;2023-02-22T04:59:27;5.70;99.90
25949;DHT22;13961;51.178;4.448;2023-02-22T05:01:54;5.50;99.90
25949;DHT22;13961;51.178;4.448;2023-02-22T05:04:19;5.40;99.90
25949;DHT22;13961;51.178;4.448;2023-02-22T05:06:46;5.30;99.90
25949;DHT22;13961;51.178;4.448;2023-02-22T05:09:12;5.20;99.90
25949;DHT22;13961;51.178;4.448;2023-02-22T05:11:38;5.60;99.90
25949;DHT22;13961;51.178;4.448;2023-02-22T05:14:04;5.50;99.90
25949;DHT22;13961;51.178;4.448;2023-02-22T05:16:29;5.20;99.90
25949;DHT22;13961;51.178;4.448;2023-02-22T05:18:55;5.40;99.90
25949;DHT22;13961;51.178;4.448;2023-02-22T05:21:21;5.30;99.90
25949;DHT22;13961;51.178;4.448;2023-02-22T05:23:47;5.70;99.90
25949;DHT22;13961;51.178;4.448;2023-02-22T05:26:12;5.70;99.90
25949;DHT22;13961;51.178;4.448;2023-02-22T05:28:38;5.80;99.90
25949;DHT22;13961;51.178;4.448;2023-02-22T05:31:04;5.60;99.90
25949;DHT22;13961;51.178;4.448;2023-02-22T05:33:31;5.50;99.90
25949;DHT22;13961;51.178;4.448;2023-02-22T05:35:57;5.30;99.90
25949;DHT22;13961;51.178;4.448;2023-02-22T05:38:23;5.20;99.90
25949;DHT22;13961;51.178;4.448;2023-02-22T05:40:49;5.10;99.90
25949;DHT22;13961;51.178;4.448;2023-02-22T05:43:14;5.20;99.90
25949;DHT22;13961;51.178;4.448;2023-02-22T05:45:40;5.20;99.90
25949;DHT22;13961;51.178;4.448;2023-02-22T05:48:07;5.20;99.90
25949;DHT22;13961;51.178;4.448;2023-02-22T05:50:33;5.10;99.90
25949;DHT22;13961;51.178;4.448;2023-02-22T05:52:59;5.30;99.90
25949;DHT22;13961;51.178;4.448;2023-02-22T05:55:25;5.80;99.90
25949;DHT22;13961;51.178;4.448;2023-02-22T05:57:51;6.10;99.90
25949;DHT22;13961;51.178;4.448;2023-02-22T06:00:24;6.10;99.90
25949;DHT22;13961;51.178;4.448;2023-02-22T06:02:54;6.00;99.90
25949;DHT22;13961;51.178;4.448;2023-02-22T06:05:20;5.90;99.90
25949;DHT22;13961;51.178;4.448;2023-02-22T06:07:45;5.80;99.90
25949;DHT22;13961;51.178;4.448;2023-02-22T06:10:11;6.00;99.90
25949;DHT22;13961;51.178;4.448;2023-02-22T06:12:38;6.00;99.90
25949;DHT22;13961;51.178;4.448;2023-02-22T06:15:04;5.80;99.90
25949;DHT22;13961;51.178;4.448;2023-02-22T06:17:30;5.80;99.90
25949;DHT22;13961;51.178;4.448;2023-02-22T06:19:55;5.50;99.90
25949;DHT22;13961;51.178;4.448;2023-02-22T06:22:21;5.60;99.90
25949;DHT22;13961;51.178;4.448;2023-02-22T06:24:47;5.40;99.90
25949;DHT22;13961;51.178;4.448;2023-02-22T06:27:13;5.30;99.90
25949;DHT22;13961;51.178;4.448;2023-02-22T06:29:39;5.50;99.90
25949;DHT22;13961;51.178;4.448;2023-02-22T06:32:08;5.70;99.90
25949;DHT22;13961;51.178;4.448;2023-02-22T06:34:34;5.70;99.90
25949;DHT22;13961;51.178;4.448;2023-02-22T06:36:59;5.20;99.90
25949;DHT22;13961;51.178;4.448;2023-02-22T06:39:25;5.20;99.90
25949;DHT22;13961;51.178;4.448;2023-02-22T06:41:51;5.10;99.90
25949;DHT22;13961;51.178;4.448;2023-02-22T06:44:16;5.10;99.90
25949;DHT22;13961;51.178;4.448;2023-02-22T06:46:49;4.90;99.90
25949;DHT22;13961;51.178;4.448;2023-02-22T06:49:19;5.30;99.90
25949;DHT22;13961;51.178;4.448;2023-02-22T06:51:45;5.30;99.90
25949;DHT22;13961;51.178;4.448;2023-02-22T06:54:11;5.80;99.90
25949;DHT22;13961;51.178;4.448;2023-02-22T06:56:37;5.90;99.90
25949;DHT22;13961;51.178;4.448;2023-02-22T06:59:03;5.60;99.90
25949;DHT22;13961;51.178;4.448;2023-02-22T07:01:29;5.50;99.90
25949;DHT22;13961;51.178;4.448;2023-02-22T07:03:55;5.40;99.90
25949;DHT22;13961;51.178;4.448;2023-02-22T07:06:21;5.70;99.90
25949;DHT22;13961;51.178;4.448;2023-02-22T07:08:47;5.80;99.90
25949;DHT22;13961;51.178;4.448;2023-02-22T07:11:15;5.80;99.90
25949;DHT22;13961;51.178;4.448;2023-02-22T07:13:41;6.20;99.90
25949;DHT22;13961;51.178;4.448;2023-02-22T07:16:06;6.20;99.90
25949;DHT22;13961;51.178;4.448;2023-02-22T07:18:32;6.20;99.90
25949;DHT22;13961;51.178;4.448;2023-02-22T07:20:58;6.00;99.90
25949;DHT22;13961;51.178;4.448;2023-02-22T07:23:23;6.10;99.90
25949;DHT22;13961;51.178;4.448;2023-02-22T07:25:49;5.90;99.90
25949;DHT22;13961;51.178;4.448;2023-02-22T07:28:15;6.10;99.90
25949;DHT22;13961;51.178;4.448;2023-02-22T07:30:42;6.20;99.90
25949;DHT22;13961;51.178;4.448;2023-02-22T07:33:10;6.70;99.90
25949;DHT22;13961;51.178;4.448;2023-02-22T07:35:54;6.50;99.90
25949;DHT22;13961;51.178;4.448;2023-02-22T07:38:19;6.20;99.90
25949;DHT22;13961;51.178;4.448;2023-02-22T07:40:45;6.20;99.90
25949;DHT22;13961;51.178;4.448;2023-02-22T07:43:21;6.20;99.90
25949;DHT22;13961;51.178;4.448;2023-02-22T07:45:49;6.00;99.90
25949;DHT22;13961;51.178;4.448;2023-02-22T07:48:15;6.20;99.90
25949;DHT22;13961;51.178;4.448;2023-02-22T07:50:41;6.40;99.90
25949;DHT22;13961;51.178;4.448;2023-02-22T07:53:17;6.60;99.90
25949;DHT22;13961;51.178;4.448;2023-02-22T07:55:43;6.90;99.90
25949;DHT22;13961;51.178;4.448;2023-02-22T07:58:13;6.90;99.90
25949;DHT22;13961;51.178;4.448;2023-02-22T08:00:40;6.70;99.90
25949;DHT22;13961;51.178;4.448;2023-02-22T08:03:08;7.00;99.90
25949;DHT22;13961;51.178;4.448;2023-02-22T08:05:36;7.20;99.90
25949;DHT22;13961;51.178;4.448;2023-02-22T08:08:03;7.10;99.90
25949;DHT22;13961;51.178;4.448;2023-02-22T08:10:30;6.80;99.90
25949;DHT22;13961;51.178;4.448;2023-02-22T08:12:57;7.20;99.90
25949;DHT22;13961;51.178;4.448;2023-02-22T08:15:28;7.20;99.90
25949;DHT22;13961;51.178;4.448;2023-02-22T08:17:54;7.30;99.90
25949;DHT22;13961;51.178;4.448;2023-02-22T08:20:21;7.20;99.90
25949;DHT22;13961;51.178;4.448;2023-02-22T08:22:47;7.00;99.90
25949;DHT22;13961;51.178;4.448;2023-02-22T08:25:14;7.00;99.90
25949;DHT22;13961;51.178;4.448;2023-02-22T08:27:40;7.20;99.90
25949;DHT22;13961;51.178;4.448;2023-02-22T08:30:07;7.10;99.90
25949;DHT22;13961;51.178;4.448;2023-02-22T08:32:34;7.20;99.90
25949;DHT22;13961;51.178;4.448;2023-02-22T08:35:02;7.40;99.90
25949;DHT22;13961;51.178;4.448;2023-02-22T08:37:27;7.90;99.90
25949;DHT22;13961;51.178;4.448;2023-02-22T08:39:53;7.80;99.90
25949;DHT22;13961;51.178;4.448;2023-02-22T08:42:20;7.90;99.90
25949;DHT22;13961;51.178;4.448;2023-02-22T08:44:46;8.00;99.90
25949;DHT22;13961;51.178;4.448;2023-02-22T08:47:12;7.80;99.90
25949;DHT22;13961;51.178;4.448;2023-02-22T08:49:37;7.80;99.90
25949;DHT22;13961;51.178;4.448;2023-02-22T08:52:03;7.90;99.90
25949;DHT22;13961;51.178;4.448;2023-02-22T08:54:29;7.70;99.90
25949;DHT22;13961;51.178;4.448;2023-02-22T08:56:54;7.60;99.90
25949;DHT22;13961;51.178;4.448;2023-02-22T08:59:20;7.50;99.90
25949;DHT22;13961;51.178;4.448;2023-02-22T09:01:45;7.70;99.90
25949;DHT22;13961;51.178;4.448;2023-02-22T09:04:11;7.70;99.90
25949;DHT22;13961;51.178;4.448;2023-02-22T09:06:39;7.90;99.90
25949;DHT22;13961;51.178;4.448;2023-02-22T09:09:06;7.80;99.90
25949;DHT22;13961;51.178;4.448;2023-02-22T09:11:31;7.50;99.90
25949;DHT22;13961;51.178;4.448;2023-02-22T09:13:57;7.60;99.90
25949;DHT22;13961;51.178;4.448;2023-02-22T09:16:23;7.90;99.90
25949;DHT22;13961;51.178;4.448;2023-02-22T09:18:48;8.10;99.90
25949;DHT22;13961;51.178;4.448;2023-02-22T09:21:14;8.40;99.90
25949;DHT22;13961;51.178;4.448;2023-02-22T09:23:40;8.60;99.90
25949;DHT22;13961;51.178;4.448;2023-02-22T09:26:07;8.70;99.90
25949;DHT22;13961;51.178;4.448;2023-02-22T09:28:33;8.90;99.90
25949;DHT22;13961;51.178;4.448;2023-02-22T09:30:59;8.70;99.90
25949;DHT22;13961;51.178;4.448;2023-02-22T09:33:25;8.80;99.90
25949;DHT22;13961;51.178;4.448;2023-02-22T09:35:51;8.70;99.90
25949;DHT22;13961;51.178;4.448;2023-02-22T09:38:19;9.00;99.90
25949;DHT22;13961;51.178;4.448;2023-02-22T09:40:54;9.10;99.90
25949;DHT22;13961;51.178;4.448;2023-02-22T09:43:52;9.00;99.90
25949;DHT22;13961;51.178;4.448;2023-02-22T09:46:31;8.70;99.90
25949;DHT22;13961;51.178;4.448;2023-02-22T09:49:22;8.90;99.90
25949;DHT22;13961;51.178;4.448;2023-02-22T09:51:51;9.10;99.90
25949;DHT22;13961;51.178;4.448;2023-02-22T09:54:23;9.10;99.90
25949;DHT22;13961;51.178;4.448;2023-02-22T09:56:52;9.40;99.90
25949;DHT22;13961;51.178;4.448;2023-02-22T09:59:25;9.80;99.90
25949;DHT22;13961;51.178;4.448;2023-02-22T10:02:14;9.50;99.90
25949;DHT22;13961;51.178;4.448;2023-02-22T10:05:08;9.50;99.90
25949;DHT22;13961;51.178;4.448;2023-02-22T10:07:39;9.50;99.90
25949;DHT22;13961;51.178;4.448;2023-02-22T10:10:14;9.70;99.90
25949;DHT22;13961;51.178;4.448;2023-02-22T10:12:55;9.90;99.90
25949;DHT22;13961;51.178;4.448;2023-02-22T10:26:03;10.40;99.90
25949;DHT22;13961;51.178;4.448;2023-02-22T10:28:38;10.20;99.90
25949;DHT22;13961;51.178;4.448;2023-02-22T10:31:15;10.40;99.90
25949;DHT22;13961;51.178;4.448;2023-02-22T10:33:47;10.30;99.90
25949;DHT22;13961;51.178;4.448;2023-02-22T10:36:19;10.40;99.90
25949;DHT22;13961;51.178;4.448;2023-02-22T10:39:06;10.30;99.90
25949;DHT22;13961;51.178;4.448;2023-02-22T10:41:46;10.20;99.90
25949;DHT22;13961;51.178;4.448;2023-02-22T10:44:13;10.50;99.90
25949;DHT22;13961;51.178;4.448;2023-02-22T10:46:41;10.60;99.90
25949;DHT22;13961;51.178;4.448;2023-02-22T10:49:09;10.50;99.90
25949;DHT22;13961;51.178;4.448;2023-02-22T10:51:37;10.70;99.90
25949;DHT22;13961;51.178;4.448;2023-02-22T10:56:50;11.10;99.90
25949;DHT22;13961;51.178;4.448;2023-02-22T10:59:35;11.20;99.90
25949;DHT22;13961;51.178;4.448;2023-02-22T11:02:31;10.90;99.90
25949;DHT22;13961;51.178;4.448;2023-02-22T11:04:59;10.60;99.90
25949;DHT22;13961;51.178;4.448;2023-02-22T11:07:34;10.80;99.90
25949;DHT22;13961;51.178;4.448;2023-02-22T11:10:03;10.80;99.90
25949;DHT22;13961;51.178;4.448;2023-02-22T11:12:32;10.80;99.90
25949;DHT22;13961;51.178;4.448;2023-02-22T11:17:48;10.90;99.90
25949;DHT22;13961;51.178;4.448;2023-02-22T11:20:28;11.30;99.90
25949;DHT22;13961;51.178;4.448;2023-02-22T11:23:01;11.60;99.90
25949;DHT22;13961;51.178;4.448;2023-02-22T11:25:36;12.00;99.90
25949;DHT22;13961;51.178;4.448;2023-02-22T11:28:11;12.00;99.90
25949;DHT22;13961;51.178;4.448;2023-02-22T11:30:42;12.30;99.90
25949;DHT22;13961;51.178;4.448;2023-02-22T11:35:56;12.10;99.90
25949;DHT22;13961;51.178;4.448;2023-02-22T11:38:31;12.10;99.90
25949;DHT22;13961;51.178;4.448;2023-02-22T11:43:32;12.10;99.90
25949;DHT22;13961;51.178;4.448;2023-02-22T11:46:02;12.20;99.90
25949;DHT22;13961;51.178;4.448;2023-02-22T11:48:33;12.40;99.90
25949;DHT22;13961;51.178;4.448;2023-02-22T11:51:28;12.50;99.90
25949;DHT22;13961;51.178;4.448;2023-02-22T11:56:44;12.10;99.90
25949;DHT22;13961;51.178;4.448;2023-02-22T12:05:26;12.20;99.90
25949;DHT22;13961;51.178;4.448;2023-02-22T12:11:11;12.10;99.90
25949;DHT22;13961;51.178;4.448;2023-02-22T12:14:05;12.10;99.90
25949;DHT22;13961;51.178;4.448;2023-02-22T12:16:37;12.20;99.90
25949;DHT22;13961;51.178;4.448;2023-02-22T12:22:02;12.60;99.90
25949;DHT22;13961;51.178;4.448;2023-02-22T12:27:23;12.80;99.90
25949;DHT22;13961;51.178;4.448;2023-02-22T12:30:02;12.70;99.90
25949;DHT22;13961;51.178;4.448;2023-02-22T12:32:37;12.50;99.90
25949;DHT22;13961;51.178;4.448;2023-02-22T12:35:27;12.50;99.90
25949;DHT22;13961;51.178;4.448;2023-02-22T12:38:00;12.50;99.90
25949;DHT22;13961;51.178;4.448;2023-02-22T12:43:32;12.80;99.90
25949;DHT22;13961;51.178;4.448;2023-02-22T12:46:11;13.00;99.90
25949;DHT22;13961;51.178;4.448;2023-02-22T12:54:50;12.90;99.90
25949;DHT22;13961;51.178;4.448;2023-02-22T12:57:39;12.70;99.90
25949;DHT22;13961;51.178;4.448;2023-02-22T13:03:12;12.90;99.90
25949;DHT22;13961;51.178;4.448;2023-02-22T13:05:49;13.00;99.90
25949;DHT22;13961;51.178;4.448;2023-02-22T13:11:00;12.80;99.90
25949;DHT22;13961;51.178;4.448;2023-02-22T13:16:52;12.80;99.90
25949;DHT22;13961;51.178;4.448;2023-02-22T13:19:42;13.00;99.90
25949;DHT22;13961;51.178;4.448;2023-02-22T13:25:31;12.40;99.90
25949;DHT22;13961;51.178;4.448;2023-02-22T13:31:38;12.80;99.90
25949;DHT22;13961;51.178;4.448;2023-02-22T13:40:03;13.20;99.90
25949;DHT22;13961;51.178;4.448;2023-02-22T13:48:56;12.80;99.90
25949;DHT22;13961;51.178;4.448;2023-02-22T13:51:47;13.00;99.90
25949;DHT22;13961;51.178;4.448;2023-02-22T13:54:41;13.00;99.90
25949;DHT22;13961;51.178;4.448;2023-02-22T13:57:32;12.80;99.90
25949;DHT22;13961;51.178;4.448;2023-02-22T14:10:57;12.70;99.90
25949;DHT22;13961;51.178;4.448;2023-02-22T14:16:26;12.80;99.90
25949;DHT22;13961;51.178;4.448;2023-02-22T14:19:12;12.80;99.90
25949;DHT22;13961;51.178;4.448;2023-02-22T14:21:58;12.70;99.90
25949;DHT22;13961;51.178;4.448;2023-02-22T14:24:28;12.60;99.90
25949;DHT22;13961;51.178;4.448;2023-02-22T14:27:03;12.60;99.90
25949;DHT22;13961;51.178;4.448;2023-02-22T14:29:29;12.50;99.90
25949;DHT22;13961;51.178;4.448;2023-02-22T14:32:11;12.40;99.90
25949;DHT22;13961;51.178;4.448;2023-02-22T14:34:57;12.20;99.90
25949;DHT22;13961;51.178;4.448;2023-02-22T14:37:33;12.10;99.90
25949;DHT22;13961;51.178;4.448;2023-02-22T14:42:49;11.60;99.90
25949;DHT22;13961;51.178;4.448;2023-02-22T14:45:28;11.60;99.90
25949;DHT22;13961;51.178;4.448;2023-02-22T14:48:34;11.80;99.90
25949;DHT22;13961;51.178;4.448;2023-02-22T14:51:27;11.60;99.90
25949;DHT22;13961;51.178;4.448;2023-02-22T14:56:24;11.40;99.90
25949;DHT22;13961;51.178;4.448;2023-02-22T14:59:33;11.60;99.90
25949;DHT22;13961;51.178;4.448;2023-02-22T15:01:39;11.70;99.90
25949;DHT22;13961;51.178;4.448;2023-02-22T15:04:26;11.40;99.90
25949;DHT22;13961;51.178;4.448;2023-02-22T15:06:54;11.50;99.90
25949;DHT22;13961;51.178;4.448;2023-02-22T15:09:29;11.40;99.90
25949;DHT22;13961;51.178;4.448;2023-02-22T15:14:34;11.50;99.90
25949;DHT22;13961;51.178;4.448;2023-02-22T15:17:22;11.50;99.90
25949;DHT22;13961;51.178;4.448;2023-02-22T15:19:52;11.40;99.90
25949;DHT22;13961;51.178;4.448;2023-02-22T15:22:24;10.90;99.90
25949;DHT22;13961;51.178;4.448;2023-02-22T15:25:02;10.80;99.90
25949;DHT22;13961;51.178;4.448;2023-02-22T15:27:28;10.80;99.90
25949;DHT22;13961;51.178;4.448;2023-02-22T15:29:59;10.70;99.90
25949;DHT22;13961;51.178;4.448;2023-02-22T15:32:41;10.70;99.90
25949;DHT22;13961;51.178;4.448;2023-02-22T15:35:23;10.70;99.90
25949;DHT22;13961;51.178;4.448;2023-02-22T15:38:00;11.00;99.90
25949;DHT22;13961;51.178;4.448;2023-02-22T15:40:27;10.90;99.90
25949;DHT22;13961;51.178;4.448;2023-02-22T15:43:15;10.70;99.90
25949;DHT22;13961;51.178;4.448;2023-02-22T15:45:41;10.80;99.90
25949;DHT22;13961;51.178;4.448;2023-02-22T15:48:11;10.60;99.90
25949;DHT22;13961;51.178;4.448;2023-02-22T15:50:37;10.70;99.90
25949;DHT22;13961;51.178;4.448;2023-02-22T15:55:54;11.10;99.90
25949;DHT22;13961;51.178;4.448;2023-02-22T15:58:23;11.30;99.90
25949;DHT22;13961;51.178;4.448;2023-02-22T16:01:07;11.10;99.90
25949;DHT22;13961;51.178;4.448;2023-02-22T16:03:55;11.10;99.90
25949;DHT22;13961;51.178;4.448;2023-02-22T16:06:32;11.20;99.90
25949;DHT22;13961;51.178;4.448;2023-02-22T16:09:17;11.20;99.90
25949;DHT22;13961;51.178;4.448;2023-02-22T16:11:47;11.00;99.90
25949;DHT22;13961;51.178;4.448;2023-02-22T16:14:28;10.70;99.90
25949;DHT22;13961;51.178;4.448;2023-02-22T16:22:44;11.10;99.90
25949;DHT22;13961;51.178;4.448;2023-02-22T16:32:47;11.30;99.90
25949;DHT22;13961;51.178;4.448;2023-02-22T16:35:14;11.20;99.90
25949;DHT22;13961;51.178;4.448;2023-02-22T16:38:03;11.30;99.90
25949;DHT22;13961;51.178;4.448;2023-02-22T16:40:33;11.40;99.90
25949;DHT22;13961;51.178;4.448;2023-02-22T16:43:05;11.30;99.90
25949;DHT22;13961;51.178;4.448;2023-02-22T16:45:31;11.10;99.90
25949;DHT22;13961;51.178;4.448;2023-02-22T16:48:01;11.20;99.90
25949;DHT22;13961;51.178;4.448;2023-02-22T16:50:35;11.10;99.90
25949;DHT22;13961;51.178;4.448;2023-02-22T16:53:01;11.10;99.90
25949;DHT22;13961;51.178;4.448;2023-02-22T16:55:27;11.20;99.90
25949;DHT22;13961;51.178;4.448;2023-02-22T16:57:55;11.20;99.90
25949;DHT22;13961;51.178;4.448;2023-02-22T17:00:26;11.20;99.90
25949;DHT22;13961;51.178;4.448;2023-02-22T17:03:03;11.30;99.90
25949;DHT22;13961;51.178;4.448;2023-02-22T17:05:31;11.30;99.90
25949;DHT22;13961;51.178;4.448;2023-02-22T17:08:04;11.20;99.90
25949;DHT22;13961;51.178;4.448;2023-02-22T17:10:31;11.20;99.90
25949;DHT22;13961;51.178;4.448;2023-02-22T17:12:58;11.10;99.90
25949;DHT22;13961;51.178;4.448;2023-02-22T17:15:32;11.10;99.90
25949;DHT22;13961;51.178;4.448;2023-02-22T17:18:00;11.10;99.90
25949;DHT22;13961;51.178;4.448;2023-02-22T17:20:30;11.20;99.90
25949;DHT22;13961;51.178;4.448;2023-02-22T17:23:06;11.20;99.90
25949;DHT22;13961;51.178;4.448;2023-02-22T17:25:39;11.10;99.90
25949;DHT22;13961;51.178;4.448;2023-02-22T17:28:06;11.10;99.90
25949;DHT22;13961;51.178;4.448;2023-02-22T17:30:32;11.20;99.90
25949;DHT22;13961;51.178;4.448;2023-02-22T17:33:01;11.20;99.90
25949;DHT22;13961;51.178;4.448;2023-02-22T17:35:29;11.20;99.90
25949;DHT22;13961;51.178;4.448;2023-02-22T17:38:01;11.30;99.90
25949;DHT22;13961;51.178;4.448;2023-02-22T17:40:35;11.40;99.90
25949;DHT22;13961;51.178;4.448;2023-02-22T17:43:03;11.50;99.90
25949;DHT22;13961;51.178;4.448;2023-02-22T17:45:30;11.50;99.90
25949;DHT22;13961;51.178;4.448;2023-02-22T17:47:56;11.40;99.90
25949;DHT22;13961;51.178;4.448;2023-02-22T17:50:24;11.40;99.90
25949;DHT22;13961;51.178;4.448;2023-02-22T17:52:50;11.30;99.90
25949;DHT22;13961;51.178;4.448;2023-02-22T17:55:18;11.30;99.90
25949;DHT22;13961;51.178;4.448;2023-02-22T17:57:44;11.20;99.90
25949;DHT22;13961;51.178;4.448;2023-02-22T18:00:15;11.20;99.90
25949;DHT22;13961;51.178;4.448;2023-02-22T18:02:49;11.30;99.90
25949;DHT22;13961;51.178;4.448;2023-02-22T18:05:15;11.30;99.90
25949;DHT22;13961;51.178;4.448;2023-02-22T18:07:42;11.30;99.90
25949;DHT22;13961;51.178;4.448;2023-02-22T18:10:08;11.20;99.90
25949;DHT22;13961;51.178;4.448;2023-02-22T18:12:38;11.20;99.90
25949;DHT22;13961;51.178;4.448;2023-02-22T18:15:05;11.30;99.90
25949;DHT22;13961;51.178;4.448;2023-02-22T18:17:33;11.40;99.90
25949;DHT22;13961;51.178;4.448;2023-02-22T18:19:58;11.50;99.90
25949;DHT22;13961;51.178;4.448;2023-02-22T18:22:24;11.60;99.90
25949;DHT22;13961;51.178;4.448;2023-02-22T18:24:50;11.50;99.90
25949;DHT22;13961;51.178;4.448;2023-02-22T18:27:19;11.30;99.90